Terminal Aerodrome Forecast
Issued by NWS

Home | Current Version | Previous Version | Text Only | Print | Product List | Glossary On
Versions: 1 2 3 4 5 6 7 8 9 10 11 12
000
FTUS45 KABQ 270500
TAFLVS
TAF
KLVS 270538Z 2706/2806 18009KT P6SM SCT090
     FM270800 22007KT P6SM VCTS BKN090CB
      TEMPO 2708/2711 26015G24KT -TSRA BKN050CB
     FM271100 21009KT P6SM VCSH BKN050
     FM271700 21014G20KT P6SM SCT060=

USA.gov is the U.S. government's official web portal to all federal, state and local government web resources and services.